x

Bay Of Campeche - 214 Nm Ne Of Veracruz, Mx (42055) Wave Buoy

4:50pm - Mon 24th Nov 2014 All times are UTC.

  • Sig Wave height 3.0ft
  • Swell Direction
  • Peak Period 8s
  • Average Period 6s
  • Wind
    11mph
  • Sea Temp 79°f
  • Air Temp 78°f
  • Sea Pressure 1011.2mb

More Historic Weather Station data

Upgrade to MSW Pro to gain access to the past 30 days of data for over 8000 Wavebouys and Weather Stations around the globe.

Join Pro

Comparision Forecast

View Surf forecast
   
Mon 11/24 4:50pm 3ft 8s 6s 11
mph
1011.2mb 79f 78f
3:50pm 3ft 8s 6s 11 13 mph 1011.4mb 79f 78f
2:50pm 3.5ft 8s  -  9 11 mph 1010.7mb 78f 78f
1:50pm 3.5ft 8s 6s 7
mph
1010mb 78f 78f
12:50pm 3.5ft 8s 6s 4 7 mph 1009mb 78f 78f
11:50am 3.5ft 8s 6s 7
mph
1008.4mb 78f 78f
10:50am 4.5ft 8s 6s 4 7 mph 1007.8mb 78f 78f
9:50am 4.5ft 7s 6s 9 11 mph 1006.8mb 78f 78f
8:50am 4.5ft 7s 6s 11
mph
1006.6mb 78f 78f
7:50am 4ft 7s 6s 11 13 mph 1006.7mb 78f 78f
6:50am 4.5ft 8s 6s 11 13 mph 1006.6mb 78f 78f
5:50am 4.5ft 7s 5s 13 16 mph 1006.9mb 78f 78f
4:50am 4.5ft 9s 6s 16 18 mph 1007.1mb 78f 78f
3:50am 4.5ft 7s 6s 13 16 mph 1007mb 78f 78f
2:50am 5ft 9s 6s 9 13 mph 1007.3mb 78f 78f
1:50am 5ft 9s 6s 7 9 mph 1006.9mb 79f 78f
12:50am 5ft 9s 6s 9 11 mph 1006.4mb 79f 78f
Sun 11/23 11:50pm 5ft 9s 6s 9 11 mph 1005.8mb 79f 78f
10:50pm 5ft 9s 6s 13 16 mph 1005.2mb 79f 79f
9:50pm 5ft 9s 6s 13 16 mph 1004.9mb 79f 79f
8:50pm 5ft 9s 6s 13 16 mph 1005.4mb 79f 79f
7:50pm 5ft 9s 6s 11 13 mph 1005.7mb 79f 79f
6:50pm 5ft 9s 6s 11 13 mph 1007.3mb 79f 79f
5:50pm 5ft 9s 6s 7 9 mph 1009.1mb 79f 79f
4:50pm 5ft 9s 6s 11 13 mph 1009.6mb 78f 79f
3:50pm 5ft 8s  -  13 16 mph 1010mb 78f 79f
2:50pm 5ft 9s 6s 11 13 mph 1009.5mb 78f 79f
1:50pm 5ft 9s 6s 13 16 mph 1008.7mb 78f 79f
12:50pm 5.5ft 8s 6s 13 18 mph 1008.5mb 78f 79f
11:50am 5.5ft 9s 6s 16 18 mph 1007.7mb 78f 78f
10:50am 5.5ft 8s 5s 20 25 mph 1007mb 78f 78f
9:50am 5ft 8s 5s 20 22 mph 1007.3mb 78f 78f
8:50am 5.5ft 9s 5s 20 22 mph 1007.4mb 78f 78f
7:50am 5.5ft 7s 5s 22 25 mph 1008.1mb 78f 78f
6:50am 5ft 8s 5s 22 27 mph 1008.4mb 78f 78f
5:50am 5.5ft 6s 5s 18 22 mph 1009.7mb 78f 78f
4:50am 6ft 7s 5s 18 20 mph 1010.8mb 78f 78f
3:50am 6ft 7s 5s 18 25 mph 1010.8mb 78f 78f
2:50am 5ft 6s 5s 20 22 mph 1010.7mb 78f 78f
1:50am 6ft 7s 5s 20 25 mph 1010.8mb 78f 78f
12:50am 6ft 7s 5s 20 25 mph 1010.4mb 78f 78f
Sat 11/22 11:50pm 6ft 8s 5s 20 25 mph 1010.4mb 78f 78f
10:50pm 6ft 7s 5s 22 27 mph 1010.4mb 78f 78f
9:50pm 6ft 7s 5s 25 27 mph 1010.3mb 78f 78f
8:50pm 5ft 6s 5s 22 27 mph 1010.9mb 78f 78f
7:50pm 5.5ft 8s 5s 20 25 mph 1012.1mb 78f 78f
6:50pm 5ft 7s 5s 20 25 mph 1013.4mb 78f 78f
5:50pm 5ft 7s 5s 18 22 mph 1014.9mb 78f 78f
4:50pm 5.5ft 7s 5s 20 22 mph 1015.9mb 78f 78f
3:50pm 5ft 7s 5s 20 25 mph 1016.6mb 78f 79f
2:50pm 5.5ft 8s 5s 20 22 mph 1016.2mb 78f 78f
1:50pm 5ft 7s 5s 20 25 mph 1016.1mb 78f 78f
12:50pm 4.5ft 8s 5s 16 20 mph 1015.8mb 78f 78f
11:50am 4.5ft 7s 5s 13 18 mph 1015.7mb 78f 77f
10:50am 4.5ft 7s 5s 16 18 mph 1015.6mb 78f 78f
9:50am 4ft 7s 5s 16 18 mph 1015.5mb 78f 78f
8:50am 4.5ft 8s 5s 13 18 mph 1015.8mb 78f 78f
7:50am 4.5ft 7s 5s 16 20 mph 1016mb 78f 78f
6:50am 4.5ft 8s 5s 16 18 mph 1016.5mb 78f 78f
5:50am 4.5ft 7s 5s 16 18 mph 1017mb 78f 78f
4:50am 4ft 7s 5s 16 18 mph 1017.2mb 78f 78f
3:50am 4ft 6s 5s 16 18 mph 1017mb 78f 78f
2:50am 4ft 5s 5s 16 20 mph 1017.1mb 78f 78f
1:50am 4ft 7s 5s 18 20 mph 1016.6mb 78f 78f
12:50am 4ft 7s 5s 16 18 mph 1016.2mb 78f 78f
Fri 11/21 11:50pm 4ft 8s 5s 13 16 mph 1015.9mb 78f 78f
10:50pm 4ft 8s 5s 13 16 mph 1016.2mb 78f 78f
9:50pm 4ft 8s 5s 13 18 mph 1016mb 78f 78f
8:50pm 4ft 8s 5s 16 18 mph 1016.2mb 78f 78f
7:50pm 4ft 7s 5s 13 16 mph 1016.8mb 78f 78f
6:50pm 4.5ft 8s 5s 13 16 mph 1017.5mb 78f 78f
5:50pm 4ft 7s 5s 13 16 mph 1018.5mb 78f 77f
4:50pm 4.5ft 8s 5s 13 16 mph 1019mb 78f 77f
3:50pm 4.5ft 8s 5s 16 18 mph 1019mb 78f 77f
2:50pm 4ft 7s 5s 16 18 mph 1019mb 78f 77f
1:50pm 4ft 7s 5s 16 18 mph 1018.4mb 78f 77f
12:50pm 4.5ft 6s 5s 13 18 mph 1018mb 78f 76f
11:50am 4.5ft 8s 5s 11 16 mph 1017.4mb 78f 76f
10:50am 4.5ft 8s 5s 13 18 mph 1016.7mb 78f 76f
9:50am 4.5ft 7s 5s 13 16 mph 1017mb 78f 76f
8:50am 4.5ft 8s 5s 13 16 mph 1017mb 78f 76f
7:50am 4.5ft 6s 5s 11 16 mph 1017.4mb 78f 76f
6:50am 4.5ft 8s 5s 16 18 mph 1017.5mb 78f 76f
5:50am 4.5ft 6s 5s 16 20 mph 1018.2mb 78f 76f
4:50am 5ft 6s 5s 18 22 mph 1018mb 78f 76f
3:50am 5ft 6s 5s 20 22 mph 1018mb 78f 76f
2:50am 4.5ft 6s 5s 18 22 mph 1018.2mb 78f 76f
1:50am 5ft 6s 5s 18 20 mph 1017.4mb 78f 76f
12:50am 5ft 8s 5s 18 22 mph 1016.9mb 78f 76f
Thu 11/20 11:50pm 5ft 8s 5s 18 22 mph 1016.9mb 78f 76f
10:50pm 5ft 6s 5s 18 22 mph 1016.9mb 78f 76f
9:50pm 5ft 8s 5s 16 20 mph 1017.1mb 78f 76f
8:50pm 5ft 8s 5s 18 20 mph 1017.3mb 78f 76f
7:50pm 5.5ft 8s 5s 18 22 mph 1017.4mb 78f 76f
6:50pm 6ft 7s 5s 20 25 mph 1017.7mb 78f 76f